Time;durP1;ratioP1;P1;durP2;ratioP2;P2;SDS_P1;SDS_P2;PMS_P1;PMS_P2;Temp;Humidity;BMP_temperature;BMP_pressure;BME280_temperature;BME280_humidity;BME280_pressure;Samples;Min_cycle;Max_cycle;Signal;HPM_P1;HPM_P2
2022/06/01 00:02:01;;;;;;;22.38;18.92;;;;;;;9.97;100.00;101323.47;4912358;29;20059;-78
2022/06/01 00:04:32;;;;;;;18.88;16.85;;;;;;;10.00;100.00;101320.00;4898124;29;20044;-78
2022/06/01 00:07:01;;;;;;;16.67;13.20;;;;;;;10.02;100.00;101315.63;4921623;29;20043;-78
2022/06/01 00:09:32;;;;;;;16.55;12.07;;;;;;;10.06;100.00;101313.06;4908020;28;20043;-77
2022/06/01 00:12:00;;;;;;;13.55;10.68;;;;;;;10.08;100.00;101313.09;4910603;29;20317;-78
2022/06/01 00:14:29;;;;;;;12.30;9.80;;;;;;;10.13;100.00;101320.19;4912441;29;20054;-78
2022/06/01 00:16:57;;;;;;;10.73;9.45;;;;;;;10.17;100.00;101320.22;4932122;28;20051;-77
2022/06/01 00:19:26;;;;;;;12.38;9.85;;;;;;;10.20;100.00;101313.22;4933045;28;20059;-78
2022/06/01 00:22:12;;;;;;;12.00;10.75;;;;;;;10.24;100.00;101314.16;4940828;28;20160;-79
2022/06/01 00:24:43;;;;;;;10.98;9.88;;;;;;;10.27;100.00;101315.09;4895585;29;20048;-79
2022/06/01 00:27:13;;;;;;;10.77;9.75;;;;;;;10.28;100.00;101313.31;4923297;29;20044;-77
2022/06/01 00:29:42;;;;;;;11.07;9.98;;;;;;;10.30;100.00;101311.59;4940641;28;20058;-79
2022/06/01 00:32:13;;;;;;;12.15;10.82;;;;;;;10.33;100.00;101312.53;4918730;29;20043;-78
2022/06/01 00:34:42;;;;;;;;;;;;;;;10.36;100.00;101317.00;4915855;29;20413;-77
2022/06/01 00:37:19;;;;;;;10.90;9.80;;;;;;;10.38;100.00;101316.97;4943826;28;19930;-78
2022/06/01 00:39:50;;;;;;;11.63;10.45;;;;;;;10.39;100.00;101306.47;4881605;29;20051;-78
2022/06/01 00:42:26;;;;;;;14.52;10.85;;;;;;;10.43;100.00;101313.53;4940736;29;20048;-78
2022/06/01 00:44:54;;;;;;;10.75;9.65;;;;;;;10.44;100.00;101310.03;4924339;28;20028;-78
2022/06/01 00:47:25;;;;;;;11.77;10.55;;;;;;;10.46;100.00;101308.31;4922393;29;20047;-77
2022/06/01 00:50:15;;;;;;;11.75;10.55;;;;;;;10.49;100.00;101312.72;4906363;29;20155;-78
2022/06/01 00:52:50;;;;;;;12.20;10.88;;;;;;;10.50;100.00;101309.22;4922317;29;20051;-77
2022/06/01 00:55:28;;;;;;;12.00;10.80;;;;;;;10.52;100.00;101307.50;4888279;28;20048;-77
2022/06/01 00:58:01;;;;;;;12.38;10.40;;;;;;;10.54;100.00;101297.84;4939237;28;20066;-78
2022/06/01 01:00:38;;;;;;;16.55;11.73;;;;;;;10.56;100.00;101305.78;4940619;28;20055;-75
2022/06/01 01:03:10;;;;;;;17.52;11.43;;;;;;;10.56;100.00;101321.59;4919456;29;20386;-76
2022/06/01 01:05:59;;;;;;;11.63;10.43;;;;;;;10.56;100.00;101314.56;4918118;29;20052;-75
2022/06/01 01:08:28;;;;;;;17.40;12.00;;;;;;;10.55;100.00;101297.00;4952460;28;20543;-76
2022/06/01 01:10:57;;;;;;;13.13;11.80;;;;;;;10.57;100.00;101310.16;4880168;28;20048;-77
2022/06/01 01:13:25;;;;;;;15.63;12.35;;;;;;;10.57;100.00;101296.97;4917113;29;20048;-76
2022/06/01 01:15:55;;;;;;;14.40;11.77;;;;;;;10.58;100.00;101298.75;4938615;29;20050;-76
2022/06/01 01:18:29;;;;;;;14.38;12.95;;;;;;;10.58;100.00;101293.50;4929842;29;20048;-77
2022/06/01 01:21:04;;;;;;;14.60;12.48;;;;;;;10.57;100.00;101289.97;4890411;29;20052;-76
2022/06/01 01:24:04;;;;;;;14.27;12.35;;;;;;;10.58;100.00;101297.00;4928223;29;20055;-77
2022/06/01 01:26:34;;;;;;;12.90;11.70;;;;;;;10.58;100.00;101290.84;4894661;29;20409;-76
2022/06/01 01:29:09;;;;;;;14.40;12.88;;;;;;;10.57;100.00;101286.44;4933333;29;20044;-77
2022/06/01 01:31:43;;;;;;;15.60;14.00;;;;;;;10.57;100.00;101284.72;4942119;28;20512;-78
2022/06/01 01:34:11;;;;;;;15.10;12.98;;;;;;;10.57;100.00;101283.81;4913420;29;20051;-76
2022/06/01 01:36:50;;;;;;;15.65;14.10;;;;;;;10.58;100.00;101285.59;4888687;29;20063;-77
2022/06/01 01:39:19;;;;;;;14.60;13.10;;;;;;;10.56;100.00;101287.31;4947059;28;20500;-77
2022/06/01 01:41:53;;;;;;;17.77;13.02;;;;;;;10.55;100.00;101286.44;4892618;29;20056;-76
2022/06/01 01:44:37;;;;;;;15.52;13.88;;;;;;;10.53;100.00;101283.78;4930621;29;20380;-76
2022/06/01 01:47:05;;;;;;;16.08;14.35;;;;;;;10.53;100.00;101286.44;4944301;28;20047;-77
2022/06/01 01:49:38;;;;;;;16.17;14.50;;;;;;;10.50;100.00;101278.47;4925675;29;20517;-76
2022/06/01 01:52:14;;;;;;;16.85;15.05;;;;;;;10.48;100.00;101289.88;4915325;29;20176;-76
2022/06/01 01:54:49;;;;;;;15.68;14.15;;;;;;;10.45;100.00;101287.19;4930203;29;20036;-78
2022/06/01 01:57:33;;;;;;;17.10;14.32;;;;;;;10.42;100.00;101277.53;4898153;29;20052;-77
2022/06/01 02:00:20;;;;;;;15.43;13.80;;;;;;;10.39;100.00;101282.75;4912170;29;20066;-77
2022/06/01 02:03:08;;;;;;;18.25;14.60;;;;;;;10.36;100.00;101279.19;4925634;29;20273;-77
2022/06/01 02:06:12;;;;;;;19.60;14.52;;;;;;;10.31;100.00;101282.66;4910394;29;20044;-75
2022/06/01 02:08:46;;;;;;;;;;;;;;;10.27;100.00;101278.19;4945200;28;20432;-76
2022/06/01 02:14:28;;;;;;;15.50;12.98;;;;;;;10.23;100.00;101267.63;4911534;28;20059;-76
2022/06/01 02:17:03;;;;;;;15.55;12.70;;;;;;;10.22;100.00;101266.72;4925005;29;20040;-77
2022/06/01 02:19:40;;;;;;;14.43;13.02;;;;;;;10.22;100.00;101263.22;4933749;28;20058;-77
2022/06/01 02:22:13;;;;;;;16.30;14.73;;;;;;;10.21;100.00;101259.72;4877117;29;20063;-77
2022/06/01 02:24:43;;;;;;;16.48;14.85;;;;;;;10.23;100.00;101267.63;4912639;29;20366;-76
2022/06/01 02:27:20;;;;;;;15.48;13.93;;;;;;;10.22;100.00;101260.59;4947396;28;20047;-76
2022/06/01 02:29:54;;;;;;;14.65;13.18;;;;;;;10.22;100.00;101255.31;4897874;28;20329;-76
2022/06/01 02:32:26;;;;;;;15.30;13.70;;;;;;;10.22;100.00;101265.84;4934849;29;20063;-76
2022/06/01 02:35:00;;;;;;;17.55;13.30;;;;;;;10.20;100.00;101262.31;4927548;29;20040;-76
2022/06/01 02:37:32;;;;;;;14.55;13.07;;;;;;;10.16;100.00;101266.66;4912870;29;20039;-77
2022/06/01 02:40:08;;;;;;;15.70;13.38;;;;;;;10.12;100.00;101265.75;4930352;29;20043;-76
2022/06/01 02:42:44;;;;;;;17.52;13.27;;;;;;;10.09;100.00;101264.81;4911274;29;20082;-77
2022/06/01 02:45:14;;;;;;;14.02;12.63;;;;;;;10.09;100.00;101270.09;4897277;28;20048;-78
2022/06/01 02:47:45;;;;;;;13.23;11.75;;;;;;;10.07;100.00;101269.19;4930065;29;20055;-77
2022/06/01 02:50:18;;;;;;;14.90;13.10;;;;;;;10.04;100.00;101272.69;4911409;29;20092;-77
2022/06/01 02:52:47;;;;;;;15.95;13.10;;;;;;;10.03;100.00;101270.88;4921841;28;20048;-76
2022/06/01 02:55:23;;;;;;;16.02;13.52;;;;;;;10.01;100.00;101272.63;4938291;29;20048;-76
2022/06/01 02:57:53;;;;;;;14.18;12.73;;;;;;;9.99;100.00;101274.34;4907613;29;20257;-77
2022/06/01 03:00:26;;;;;;;15.40;13.90;;;;;;;9.98;100.00;101269.97;4869649;29;20528;-76
2022/06/01 03:02:58;;;;;;;15.25;12.93;;;;;;;9.95;100.00;101273.44;4920052;29;20170;-76
2022/06/01 03:05:30;;;;;;;16.13;13.73;;;;;;;9.94;100.00;101273.41;4941450;28;20035;-76
2022/06/01 03:07:59;;;;;;;14.35;12.88;;;;;;;9.93;100.00;101272.53;4913042;29;20048;-76
2022/06/01 03:10:29;;;;;;;16.83;15.07;;;;;;;9.93;100.00;101277.78;4917264;29;20059;-76
2022/06/01 03:12:59;;;;;;;19.65;14.93;;;;;;;9.92;100.00;101280.41;4929519;29;20055;-77
2022/06/01 03:15:27;;;;;;;15.65;13.88;;;;;;;9.90;100.00;101275.13;4915699;29;20124;-77
2022/06/01 03:18:07;;;;;;;18.60;15.38;;;;;;;9.91;100.00;101276.03;4866384;29;20529;-76
2022/06/01 03:20:38;;;;;;;18.10;16.05;;;;;;;9.90;100.00;101275.13;4912807;29;20048;-77
2022/06/01 03:23:06;;;;;;;16.98;15.27;;;;;;;9.89;100.00;101269.84;4911690;29;20153;-77
2022/06/01 03:25:38;;;;;;;19.00;15.95;;;;;;;9.89;100.00;101270.72;4901277;29;20056;-77
2022/06/01 03:28:07;;;;;;;17.88;16.08;;;;;;;9.89;100.00;101272.50;4946065;28;20359;-76
2022/06/01 03:30:35;;;;;;;16.65;14.57;;;;;;;9.89;100.00;101280.38;4932894;29;20055;-77
2022/06/01 03:33:04;;;;;;;17.75;16.10;;;;;;;9.89;100.00;101277.75;4881544;29;20368;-77
2022/06/01 03:35:33;;;;;;;17.70;15.93;;;;;;;9.89;100.00;101283.91;4898137;29;20060;-77
2022/06/01 03:38:02;;;;;;;20.45;17.60;;;;;;;9.91;100.00;101289.19;4906266;29;20503;-76
2022/06/01 03:40:37;;;;;;;21.17;18.05;;;;;;;9.90;100.00;101288.28;4921020;29;20075;-76
2022/06/01 03:43:06;;;;;;;19.23;17.05;;;;;;;9.88;100.00;101291.75;4901848;29;20682;-76
2022/06/01 03:48:24;;;;;;;17.90;16.13;;;;;;;9.88;100.00;101289.13;4916166;29;20509;-75
2022/06/01 03:50:55;;;;;;;18.42;16.52;;;;;;;9.85;100.00;101291.72;4948116;28;20043;-77
2022/06/01 03:53:25;;;;;;;17.80;15.90;;;;;;;9.85;100.00;101292.63;4930862;29;20043;-77
2022/06/01 03:55:54;;;;;;;18.02;16.33;;;;;;;9.86;100.00;101296.13;4922888;28;20797;-77
2022/06/01 03:58:23;;;;;;;18.98;17.00;;;;;;;9.86;100.00;101283.84;4948427;28;20060;-76
2022/06/01 04:00:55;;;;;;;18.40;16.50;;;;;;;9.87;100.00;101296.16;4897133;29;20545;-76
2022/06/01 04:03:26;;;;;;;18.77;16.30;;;;;;;9.89;100.00;101293.56;4903145;29;20035;-77
2022/06/01 04:05:55;;;;;;;19.25;16.88;;;;;;;9.89;100.00;101294.41;4908180;29;20063;-77
2022/06/01 04:08:24;;;;;;;20.63;17.17;;;;;;;9.88;100.00;101290.00;4917476;29;20415;-77
2022/06/01 04:10:54;;;;;;;18.45;15.95;;;;;;;9.89;100.00;101285.66;4903531;29;20620;-76
2022/06/01 04:13:24;;;;;;;21.17;18.70;;;;;;;9.88;100.00;101295.28;4929050;29;20043;-77
2022/06/01 04:15:56;;;;;;;20.77;17.92;;;;;;;9.88;100.00;101297.91;4912017;29;20051;-77
2022/06/01 04:18:36;;;;;;;20.47;18.03;;;;;;;9.87;100.00;101301.41;4923352;29;20504;-76
2022/06/01 04:21:08;;;;;;;22.90;17.42;;;;;;;9.89;100.00;101298.81;4869587;29;20414;-76
2022/06/01 04:23:38;;;;;;;20.13;18.23;;;;;;;9.90;100.00;101292.66;4921404;29;20055;-77
2022/06/01 04:26:08;;;;;;;19.55;17.55;;;;;;;9.90;100.00;101300.56;4917665;29;20575;-76
2022/06/01 04:28:36;;;;;;;21.65;18.75;;;;;;;9.92;100.00;101301.47;4921817;29;20409;-76
2022/06/01 04:31:06;;;;;;;18.75;16.85;;;;;;;9.97;100.00;101293.66;4930732;29;20253;-76
2022/06/01 04:33:35;;;;;;;19.90;17.80;;;;;;;10.00;100.00;101296.28;4932260;28;20070;-76
2022/06/01 04:36:05;;;;;;;20.45;16.65;;;;;;;10.02;100.00;101298.09;4894231;29;20182;-76
2022/06/01 04:38:37;;;;;;;20.73;18.63;;;;;;;10.06;100.00;101301.66;4915252;29;20078;-77
2022/06/01 04:41:06;;;;;;;18.02;15.88;;;;;;;10.07;100.00;101288.50;4889394;29;20281;-77
2022/06/01 04:43:35;;;;;;;19.95;17.92;;;;;;;10.09;100.00;101294.69;4919742;29;20051;-76
2022/06/01 04:46:03;;;;;;;18.70;16.75;;;;;;;10.13;100.00;101298.22;4911658;29;20047;-76
2022/06/01 04:48:35;;;;;;;19.70;17.65;;;;;;;10.13;100.00;101304.38;4943020;28;20055;-78
2022/06/01 04:51:04;;;;;;;20.00;17.75;;;;;;;10.15;100.00;101301.75;4896249;28;21051;-77
2022/06/01 04:53:32;;;;;;;19.15;17.25;;;;;;;10.15;100.00;101299.13;4944342;28;20052;-76
2022/06/01 04:56:01;;;;;;;22.25;17.92;;;;;;;10.14;100.00;101302.63;4917600;29;20174;-76
2022/06/01 04:58:33;;;;;;;20.52;17.75;;;;;;;10.16;100.00;101303.53;4912516;29;20065;-77
2022/06/01 05:01:07;;;;;;;20.17;18.23;;;;;;;10.19;100.00;101305.31;4938480;28;20162;-76
2022/06/01 05:03:36;;;;;;;19.33;17.42;;;;;;;10.21;100.00;101300.94;4912654;29;20516;-76
2022/06/01 05:06:04;;;;;;;21.73;19.50;;;;;;;10.23;100.00;101304.50;4894644;28;20185;-76
2022/06/01 05:08:33;;;;;;;20.00;18.08;;;;;;;10.22;100.00;101293.06;4911537;29;20047;-77
2022/06/01 05:11:02;;;;;;;20.05;17.95;;;;;;;10.23;100.00;101289.56;4919010;29;20067;-76
2022/06/01 05:13:31;;;;;;;21.00;18.80;;;;;;;10.24;100.00;101293.09;4896904;29;20523;-76
2022/06/01 05:16:01;;;;;;;19.92;17.92;;;;;;;10.26;100.00;101291.34;4916063;29;20058;-76
2022/06/01 05:18:30;;;;;;;20.45;18.35;;;;;;;10.27;100.00;101291.38;4929081;29;20055;-76
2022/06/01 05:20:58;;;;;;;25.52;18.48;;;;;;;10.30;100.00;101296.72;4882570;28;20289;-76
2022/06/01 05:23:27;;;;;;;21.05;18.95;;;;;;;10.32;100.00;101294.09;4936111;28;20052;-77
2022/06/01 05:25:56;;;;;;;21.40;19.23;;;;;;;10.33;100.00;101288.84;4928479;29;20356;-77
2022/06/01 05:28:29;;;;;;;22.10;19.45;;;;;;;10.33;100.00;101288.84;4910298;29;20032;-77
2022/06/01 05:31:03;;;;;;;22.75;20.35;;;;;;;10.35;100.00;101294.13;4920923;29;20690;-77
2022/06/01 05:33:33;;;;;;;22.23;19.05;;;;;;;10.35;100.00;101288.84;4929945;29;20054;-78
2022/06/01 05:36:04;;;;;;;21.77;19.52;;;;;;;10.37;100.00;101287.13;4916696;29;20688;-76
2022/06/01 05:38:32;;;;;;;20.92;18.75;;;;;;;10.41;100.00;101291.56;4873458;29;20040;-76
2022/06/01 05:41:03;;;;;;;20.63;18.58;;;;;;;10.45;100.00;101288.09;4929934;29;20421;-76
2022/06/01 05:43:33;;;;;;;27.73;20.90;;;;;;;10.52;100.00;101297.81;4906742;29;20051;-76
2022/06/01 05:46:03;;;;;;;20.90;18.60;;;;;;;10.59;100.00;101292.63;4907399;29;20286;-76
2022/06/01 05:48:31;;;;;;;25.17;20.35;;;;;;;10.70;100.00;101289.22;4917847;29;20063;-77
2022/06/01 05:51:00;;;;;;;20.15;18.23;;;;;;;10.82;100.00;101287.59;4919908;29;20036;-76
2022/06/01 05:53:28;;;;;;;20.85;18.70;;;;;;;10.92;100.00;101298.22;4884489;29;20706;-76
2022/06/01 05:55:57;;;;;;;19.92;17.90;;;;;;;11.01;100.00;101293.91;4911594;29;20062;-78
2022/06/01 05:58:28;;;;;;;23.75;19.13;;;;;;;11.10;100.00;101289.59;4935164;28;20062;-78
2022/06/01 06:01:03;;;;;;;19.27;17.27;;;;;;;11.18;100.00;101294.03;4950292;28;20044;-77
2022/06/01 06:03:33;;;;;;;20.38;18.35;;;;;;;11.23;100.00;101293.22;4927070;28;20257;-79
2022/06/01 06:06:13;;;;;;;20.67;18.58;;;;;;;11.28;100.00;101299.38;4920180;29;20059;-78
2022/06/01 06:08:54;;;;;;;21.45;17.85;;;;;;;11.35;100.00;101299.44;4894045;29;20596;-79
2022/06/01 06:11:25;;;;;;;20.85;17.70;;;;;;;11.42;100.00;101302.13;4919841;29;20173;-78
2022/06/01 06:13:58;;;;;;;17.48;15.65;;;;;;;11.51;100.00;101304.84;4934794;28;20046;-77
2022/06/01 06:16:40;;;;;;;17.70;16.10;;;;;;;11.63;100.00;101297.88;4908358;29;20044;-77
2022/06/01 06:19:13;;;;;;;20.33;16.50;;;;;;;11.78;100.00;101297.09;4928126;29;20166;-78
2022/06/01 06:21:48;;;;;;;16.98;15.23;;;;;;;11.98;100.00;101302.47;4924185;29;20074;-79
2022/06/01 06:24:19;;;;;;;17.90;16.13;;;;;;;12.24;100.00;101302.59;4900343;28;20296;-78
2022/06/01 06:26:48;;;;;;;16.52;14.45;;;;;;;12.45;100.00;101304.41;4911363;29;20501;-78
2022/06/01 06:29:18;;;;;;;16.17;14.15;;;;;;;12.56;100.00;101312.38;4901293;29;20078;-78
2022/06/01 06:31:49;;;;;;;15.55;13.85;;;;;;;12.62;100.00;101315.03;4935634;28;20040;-78
2022/06/01 06:34:18;;;;;;;12.90;11.65;;;;;;;12.66;100.00;101311.50;4904237;29;20425;-78
2022/06/01 06:36:50;;;;;;;15.50;11.60;;;;;;;12.68;100.00;101315.94;4897318;29;20163;-79
2022/06/01 06:39:18;;;;;;;13.60;12.18;;;;;;;12.72;100.00;101315.94;4906528;29;20059;-79
2022/06/01 06:41:47;;;;;;;14.07;12.68;;;;;;;12.72;100.00;101327.41;4869432;29;20869;-79
2022/06/01 06:44:19;;;;;;;13.70;11.95;;;;;;;12.68;100.00;101326.53;4940685;28;20509;-79
2022/06/01 06:46:50;;;;;;;14.10;12.10;;;;;;;12.66;100.00;101323.00;4919134;29;20252;-79
2022/06/01 06:49:19;;;;;;;14.93;13.38;;;;;;;12.66;100.00;101343.25;4907727;29;20037;-78
2022/06/01 06:51:49;;;;;;;15.35;13.70;;;;;;;12.62;100.00;101342.34;4912253;29;20048;-79
2022/06/01 06:54:18;;;;;;;15.13;13.43;;;;;;;12.58;100.00;101345.88;4916624;29;20040;-79
2022/06/01 06:56:46;;;;;;;17.10;15.32;;;;;;;12.53;100.00;101346.72;4860326;29;20288;-77
2022/06/01 06:59:17;;;;;;;17.73;14.70;;;;;;;12.51;100.00;101344.06;4923915;29;20047;-78
2022/06/01 07:01:46;;;;;;;15.70;14.15;;;;;;;12.51;100.00;101348.50;4918116;29;20437;-78
2022/06/01 07:04:17;;;;;;;18.45;13.73;;;;;;;12.45;100.00;101349.34;4903440;29;20389;-79
2022/06/01 07:06:46;;;;;;;14.95;13.45;;;;;;;12.42;100.00;101349.31;4911322;29;20039;-78
2022/06/01 07:09:15;;;;;;;15.45;14.13;;;;;;;12.43;100.00;101351.09;4907597;29;20385;-79
2022/06/01 07:11:43;;;;;;;16.33;14.75;;;;;;;12.47;100.00;101361.69;4846151;29;20040;-79
2022/06/01 07:14:12;;;;;;;17.17;15.50;;;;;;;12.51;100.00;101359.94;4929035;29;20039;-78
2022/06/01 07:16:41;;;;;;;17.20;15.60;;;;;;;12.53;100.00;101365.25;4921553;28;20052;-79
2022/06/01 07:19:10;;;;;;;17.00;15.43;;;;;;;12.55;100.00;101360.84;4903596;29;20047;-79
2022/06/01 07:21:39;;;;;;;16.17;14.38;;;;;;;12.51;100.00;101361.72;4940800;28;20059;-78
2022/06/01 07:24:09;;;;;;;18.15;15.43;;;;;;;12.49;100.00;101364.34;4899683;29;20051;-78
2022/06/01 07:26:41;;;;;;;17.38;14.50;;;;;;;12.48;100.00;101370.53;4894566;29;20409;-77
2022/06/01 07:29:21;;;;;;;15.63;14.02;;;;;;;12.48;100.00;101366.13;4918024;29;20412;-79
2022/06/01 07:31:50;;;;;;;16.98;15.20;;;;;;;12.53;100.00;101357.31;4920089;28;20270;-78
2022/06/01 07:34:19;;;;;;;16.42;14.65;;;;;;;12.56;100.00;101370.53;4927343;29;20036;-78
2022/06/01 07:36:48;;;;;;;18.10;15.65;;;;;;;12.57;100.00;101364.38;4914926;29;20031;-78
2022/06/01 07:44:55;;;;;;;15.48;13.90;;;;;;;12.77;100.00;101370.59;4916271;28;20040;-78
2022/06/01 07:47:23;;;;;;;17.35;15.18;;;;;;;12.91;100.00;101380.31;4934294;28;20401;-79
2022/06/01 07:50:12;;;;;;;13.95;12.50;;;;;;;13.00;100.00;101361.81;4900810;29;20047;-79
2022/06/01 07:53:02;;;;;;;9.38;8.50;;;;;;;13.14;100.00;101373.31;4913304;28;22988;-79
2022/06/01 07:55:31;;;;;;;;;;;;;;;13.19;100.00;101368.88;4916828;29;20040;-78
2022/06/01 07:58:00;;;;;;;5.90;4.95;;;;;;;13.17;100.00;101373.31;4893675;28;20151;-78
2022/06/01 08:00:31;;;;;;;5.70;5.22;;;;;;;13.15;100.00;101369.78;4906930;29;20040;-79
2022/06/01 08:03:01;;;;;;;6.53;5.93;;;;;;;13.15;100.00;101363.59;4921755;28;20059;-79
2022/06/01 08:05:29;;;;;;;4.43;4.13;;;;;;;13.11;100.00;101364.50;4926317;29;20059;-80
2022/06/01 08:07:58;;;;;;;3.97;3.10;;;;;;;12.98;100.00;101372.41;4897137;29;20059;-79
2022/06/01 08:10:26;;;;;;;3.20;3.00;;;;;;;12.80;100.00;101373.25;4899583;29;20036;-79
2022/06/01 08:13:07;;;;;;;7.35;2.97;;;;;;;12.66;100.00;101364.41;4889996;29;20596;-79
2022/06/01 08:15:47;;;;;;;3.00;2.40;;;;;;;12.53;100.00;101365.25;4891713;29;20059;-78
2022/06/01 08:18:18;;;;;;;2.73;2.53;;;;;;;12.40;100.00;101361.66;4933417;28;20043;-78
2022/06/01 08:20:48;;;;;;;5.15;2.50;;;;;;;12.34;100.00;101361.66;4927626;28;20314;-79
2022/06/01 08:23:22;;;;;;;5.63;2.90;;;;;;;12.28;100.00;101362.50;4919292;29;20520;-79
2022/06/01 08:25:51;;;;;;;3.05;2.38;;;;;;;12.22;100.00;101357.19;4914723;29;20051;-79
2022/06/01 08:28:21;;;;;;;4.65;2.85;;;;;;;12.22;100.00;101365.13;4870157;29;20059;-78
2022/06/01 08:30:50;;;;;;;3.55;3.00;;;;;;;12.23;100.00;101374.81;4900181;29;20055;-80
2022/06/01 08:33:20;;;;;;;3.30;2.97;;;;;;;12.17;100.00;101388.88;4923290;28;20048;-78
2022/06/01 08:35:51;;;;;;;3.75;3.42;;;;;;;12.16;100.00;101373.91;4885892;29;21571;-79
2022/06/01 08:38:23;;;;;;;3.45;3.17;;;;;;;12.10;100.00;101387.09;4913599;29;20067;-76
2022/06/01 08:40:56;;;;;;;3.65;3.45;;;;;;;12.04;100.00;101385.28;4917267;29;20039;-77
2022/06/01 08:43:30;;;;;;;4.15;3.75;;;;;;;12.05;100.00;101384.41;4914129;29;20243;-76
2022/06/01 08:46:01;;;;;;;3.65;3.35;;;;;;;12.05;100.00;101387.03;4885326;28;20056;-75
2022/06/01 08:49:03;;;;;;;2.83;2.63;;;;;;;12.05;100.00;101397.59;4930627;28;20052;-76
2022/06/01 08:51:32;;;;;;;3.30;3.10;;;;;;;12.03;100.00;101399.38;4907510;29;20082;-76
2022/06/01 08:54:02;;;;;;;3.30;2.83;;;;;;;12.03;100.00;101402.00;4905680;28;20059;-77
2022/06/01 08:56:32;;;;;;;;;;;;;;;12.04;100.00;101401.16;4910146;29;20548;-74
2022/06/01 08:59:26;;;;;;;3.10;2.92;;;;;;;12.11;100.00;101402.03;4915980;29;19922;-77
2022/06/01 09:01:57;;;;;;;3.50;3.30;;;;;;;12.16;100.00;101404.72;4875436;29;20055;-77
2022/06/01 09:04:38;;;;;;;3.60;3.30;;;;;;;12.24;100.00;101408.28;4894699;29;20242;-76
2022/06/01 09:07:28;;;;;;;3.50;3.30;;;;;;;12.39;100.00;101392.50;4913785;29;20496;-76
2022/06/01 09:10:09;;;;;;;3.00;2.80;;;;;;;12.48;100.00;101389.03;4899748;29;20044;-77
2022/06/01 09:12:37;;;;;;;3.70;3.50;;;;;;;12.52;100.00;101393.44;4920035;29;20036;-76
2022/06/01 09:15:23;;;;;;;3.05;2.75;;;;;;;12.62;100.00;101400.50;4899435;29;20048;-75
2022/06/01 09:17:56;;;;;;;2.83;2.63;;;;;;;12.66;100.00;101402.31;4894772;29;20051;-76
2022/06/01 09:23:15;;;;;;;4.13;3.72;;;;;;;12.88;100.00;101405.88;4912244;29;20059;-77
2022/06/01 09:25:52;;;;;;;4.35;3.95;;;;;;;13.00;100.00;101412.97;4903598;29;20039;-77
2022/06/01 09:28:30;;;;;;;4.57;4.18;;;;;;;13.11;100.00;101396.25;4913426;29;20705;-76
2022/06/01 09:31:08;;;;;;;4.40;4.00;;;;;;;13.23;100.00;101410.38;4915777;29;20040;-77
2022/06/01 09:33:42;;;;;;;5.43;5.00;;;;;;;13.51;100.00;101402.47;4916246;29;20070;-76
2022/06/01 09:36:11;;;;;;;5.78;5.22;;;;;;;13.64;100.00;101391.00;4890446;29;20048;-76
2022/06/01 09:38:47;;;;;;;6.50;6.00;;;;;;;13.75;100.00;101395.41;4927038;29;20056;-76
2022/06/01 09:41:27;;;;;;;5.47;5.05;;;;;;;13.79;100.00;101400.69;4877806;29;20043;-76
2022/06/01 09:44:12;;;;;;;6.47;5.97;;;;;;;13.97;100.00;101388.28;4930526;29;20055;-79
2022/06/01 09:46:40;;;;;;;6.07;5.47;;;;;;;14.20;100.00;101388.25;4917375;29;20052;-77
2022/06/01 09:49:17;;;;;;;7.00;6.40;;;;;;;14.42;100.00;101386.38;4887297;29;20059;-76
2022/06/01 09:51:51;;;;;;;5.65;5.15;;;;;;;14.54;100.00;101389.00;4898695;29;20055;-77
2022/06/01 09:54:23;;;;;;;6.38;5.88;;;;;;;14.73;100.00;101384.50;4892686;29;20048;-77
2022/06/01 09:56:52;;;;;;;6.97;6.47;;;;;;;14.81;100.00;101393.31;4897510;29;20078;-75
2022/06/01 10:08:21;;;;;;;6.68;6.07;;;;;;;14.48;100.00;101382.81;4912589;28;20058;-76
2022/06/01 10:11:21;;;;;;;6.70;6.20;;;;;;;14.38;100.00;101374.91;4917345;29;20055;-75
2022/06/01 10:13:53;;;;;;;7.70;6.50;;;;;;;14.32;100.00;101382.88;4904370;29;21050;-77
2022/06/01 10:16:40;;;;;;;6.93;6.28;;;;;;;14.30;100.00;101381.16;4920930;29;20048;-76
2022/06/01 10:19:18;;;;;;;7.28;6.60;;;;;;;14.27;100.00;101371.41;4905750;29;20070;-76
2022/06/01 10:22:02;;;;;;;7.03;6.43;;;;;;;14.29;100.00;101376.72;4899318;29;20314;-76
2022/06/01 10:24:36;;;;;;;6.35;5.85;;;;;;;14.32;100.00;101374.06;4892196;29;20052;-75
2022/06/01 10:27:06;;;;;;;6.80;6.20;;;;;;;14.36;100.00;101376.69;4910439;28;20162;-75
2022/06/01 10:29:44;;;;;;;6.75;6.15;;;;;;;14.46;100.00;101377.56;4927820;29;20517;-76
2022/06/01 10:32:35;;;;;;;5.90;5.45;;;;;;;14.52;100.00;101381.94;4931602;28;20052;-76
2022/06/01 10:35:16;;;;;;;6.47;5.80;;;;;;;14.49;100.00;101381.94;4899095;29;20464;-76
2022/06/01 10:37:54;;;;;;;6.93;6.32;;;;;;;14.43;100.00;101388.16;4915860;28;20047;-76
2022/06/01 10:40:36;;;;;;;5.60;5.20;;;;;;;14.47;100.00;101386.38;4910125;29;20052;-76
2022/06/01 10:43:28;;;;;;;3.88;3.58;;;;;;;14.61;100.00;101389.88;4884137;29;20862;-77
2022/06/01 10:46:22;;;;;;;4.05;3.72;;;;;;;14.89;100.00;101385.28;4911118;28;20309;-76
2022/06/01 10:49:15;;;;;;;3.00;2.80;;;;;;;15.12;100.00;101384.25;4888903;29;20563;-78
2022/06/01 10:51:59;;;;;;;1.48;1.38;;;;;;;15.23;100.00;101385.06;4909386;29;20048;-77
2022/06/01 10:54:49;;;;;;;2.42;2.33;;;;;;;15.25;100.00;101393.91;4901820;29;20058;-76
2022/06/01 10:57:21;;;;;;;3.58;2.20;;;;;;;15.14;100.00;101399.31;4919352;28;20063;-76
2022/06/01 10:59:52;;;;;;;2.60;2.40;;;;;;;15.02;100.00;101408.22;4894203;29;20075;-76
2022/06/01 11:02:52;;;;;;;3.00;2.40;;;;;;;14.96;100.00;101404.72;4899553;29;20047;-76
2022/06/01 11:05:41;;;;;;;3.05;2.72;;;;;;;14.99;100.00;101404.72;4890492;29;20592;-75
2022/06/01 11:08:24;;;;;;;2.22;2.13;;;;;;;14.95;100.00;101409.16;4916913;29;20035;-76
2022/06/01 11:11:02;;;;;;;2.33;2.13;;;;;;;14.83;100.00;101411.88;4919088;29;20063;-75
2022/06/01 11:14:20;;;;;;;2.47;2.20;;;;;;;14.65;100.00;101410.22;4929564;28;20044;-77
2022/06/01 11:17:17;;;;;;;3.38;3.08;;;;;;;14.54;100.00;101412.00;4908329;29;20648;-77
2022/06/01 11:19:57;;;;;;;2.50;2.30;;;;;;;14.48;100.00;101412.00;4872613;29;20085;-76
2022/06/01 11:22:51;;;;;;;3.33;2.80;;;;;;;14.48;100.00;101410.25;4934492;28;20055;-76
2022/06/01 11:25:47;;;;;;;2.65;2.40;;;;;;;14.48;100.00;101412.00;4933927;28;20547;-75
2022/06/01 11:28:28;;;;;;;2.42;2.22;;;;;;;14.48;100.00;101423.50;4928553;29;20047;-78
2022/06/01 11:31:18;;;;;;;3.08;2.78;;;;;;;14.47;100.00;101420.84;4905992;29;20052;-78
2022/06/01 11:34:15;;;;;;;4.07;2.60;;;;;;;14.43;100.00;101419.97;4912616;29;20504;-79
2022/06/01 11:36:52;;;;;;;5.40;3.72;;;;;;;14.32;100.00;101427.97;4899102;28;20031;-78
2022/06/01 11:39:29;;;;;;;3.90;2.70;;;;;;;14.26;100.00;101425.34;4919063;29;20048;-78
2022/06/01 11:42:10;;;;;;;2.85;2.65;;;;;;;14.26;100.00;101427.97;4925224;29;20051;-79
2022/06/01 11:44:47;;;;;;;2.60;2.40;;;;;;;14.27;100.00;101424.44;4942357;28;20051;-79
2022/06/01 11:47:20;;;;;;;2.80;2.40;;;;;;;14.31;100.00;101427.97;4899296;29;20054;-79
2022/06/01 11:50:11;;;;;;;3.70;2.72;;;;;;;14.42;100.00;101428.81;4912369;29;20293;-78
2022/06/01 11:53:00;;;;;;;4.70;2.50;;;;;;;14.53;100.00;101431.44;4912812;28;20046;-79
2022/06/01 11:55:43;;;;;;;4.63;2.53;;;;;;;14.57;100.00;101428.81;4932829;28;20460;-80
2022/06/01 11:58:41;;;;;;;4.30;2.60;;;;;;;14.52;100.00;101435.84;4908315;29;20056;-79
2022/06/01 12:01:14;;;;;;;2.63;2.42;;;;;;;14.49;100.00;101434.97;4922969;29;20496;-79
2022/06/01 12:04:10;;;;;;;4.43;2.53;;;;;;;14.46;100.00;101443.84;4921603;29;20051;-79
2022/06/01 12:07:00;;;;;;;3.03;2.67;;;;;;;14.39;100.00;101442.97;4877855;29;20051;-78